Charlotte Douglas International Airport
KCLT : now visible

Airfield :











YOU CAN JOIN US ON...

 
LOGIN :

Register | Disclaimer

   EN    FR    IT 

 









Legend :    VFR   Marginal VFR   IFR   Intensive IFR   Very Intensive IFR
Visi :
Ceiling :
>= 8 km
>= 3000ft
5 to 8 km
1000 to 3000 ft
1500m to 5 km
500 to 1000 ft
800 to 1500m
200 to 500 ft
< 800m
< 200 ft
Symbols :   Thunderstorms  Fog  Heavy snow  Heavy precipitations  Wind > 20 kt







- Airport Elevation : 748 ft
- IATA code : CLT


KCLT - Charlotte Douglas International

CURRENT METAR :
  • 181552Z 21011KT 10SM SCT028 BKN200 BKN250 23/16 A3006 RMK AO2 SLP170 T02330156

EXPIRED METARs :
  • 181452Z 23010G17KT 10SM SCT021 SCT150 BKN250 22/15 A3006 RMK AO2 SLP171 T02170150 51007
  • 181352Z 20007KT 10SM FEW016 SCT150 SCT250 20/15 A3005 RMK AO2 SLP171 T02000150

TAF KCLT
Valid from the 18 at 16:00 until the 19 at 18:00 UTC


181605Z 1816/1918 20011KT P6SM SCT028 BKN250
FM181900 17011G19KT P6SM FEW040 BKN200
FM190200 16014G22KT P6SM BKN060
FM190700 17012G19KT P6SM VCSH FEW007 BKN015
FM191400 17016G26KT P6SM -SHRA OVC035
PROB30 1914/1915 4SM TS OVC025CB
KZTL FIR / North America



MET'MAP, your aeronautical weather chart ! - Copyright ORBIFLY December 2007 - Disclaimer

ORBIFLY MET'MAP TEAM :

Programming & Development : Alexandra Zaïnal
Concept & Development : Baudouin d'Aumeries
Co-Development & Prog : Marc-Olivier Méhu
Technical & hardware support : Manuel Goepfert

Contact : metmap@orbifly.com




SOURCES & CREDITS :

   NOAA       Earth
Advisory